Time;durP1;ratioP1;P1;durP2;ratioP2;P2;SDS_P1;SDS_P2;PMS_P1;PMS_P2;Temp;Humidity;BMP_temperature;BMP_pressure;BME280_temperature;BME280_humidity;BME280_pressure;Samples;Min_cycle;Max_cycle;Signal;HPM_P1;HPM_P2
2021/09/07 00:01:47;;;;;;;24.92;17.73;;;18.00;99.90;;;;;;5084127;28;20052;-80
2021/09/07 00:04:14;;;;;;;28.25;19.55;;;17.90;99.90;;;;;;5079743;28;20045;-80
2021/09/07 00:06:41;;;;;;;24.70;19.45;;;17.80;99.90;;;;;;5079868;28;20076;-78
2021/09/07 00:09:09;;;;;;;24.65;18.58;;;17.70;99.90;;;;;;5078111;28;20469;-79
2021/09/07 00:11:36;;;;;;;26.48;18.02;;;17.70;99.90;;;;;;5077430;28;20087;-79
2021/09/07 00:14:03;;;;;;;25.30;18.00;;;17.70;99.90;;;;;;5079964;28;20080;-79
2021/09/07 00:16:30;;;;;;;23.85;18.00;;;17.60;99.90;;;;;;5082596;28;20044;-79
2021/09/07 00:18:57;;;;;;;25.83;16.92;;;17.60;99.90;;;;;;5082586;28;20053;-80
2021/09/07 00:21:24;;;;;;;20.98;16.77;;;17.70;99.90;;;;;;5083567;28;20582;-79
2021/09/07 00:23:51;;;;;;;21.58;15.98;;;17.70;99.90;;;;;;5086721;28;20079;-79
2021/09/07 00:26:19;;;;;;;21.85;15.40;;;17.70;99.90;;;;;;5083947;28;20044;-80
2021/09/07 00:28:46;;;;;;;23.20;16.08;;;17.70;99.90;;;;;;5084414;28;20056;-79
2021/09/07 00:31:13;;;;;;;20.73;15.32;;;17.70;99.90;;;;;;5085623;28;20476;-81
2021/09/07 00:33:40;;;;;;;20.20;14.40;;;17.70;99.90;;;;;;5084455;28;20080;-81
2021/09/07 00:36:06;;;;;;;19.75;15.05;;;17.80;99.90;;;;;;5084583;28;20109;-81
2021/09/07 00:38:33;;;;;;;21.75;15.27;;;17.70;99.90;;;;;;5082300;28;20080;-79
2021/09/07 00:41:00;;;;;;;22.67;15.35;;;17.80;99.90;;;;;;5080358;28;20048;-80
2021/09/07 00:43:29;;;;;;;19.77;14.88;;;17.70;99.90;;;;;;5084996;28;20110;-80
2021/09/07 00:45:56;;;;;;;20.58;14.93;;;17.70;99.90;;;;;;5085919;28;20041;-81
2021/09/07 00:48:22;;;;;;;24.42;15.48;;;17.70;99.90;;;;;;5086291;28;20048;-80
2021/09/07 00:50:49;;;;;;;21.67;15.75;;;17.70;99.90;;;;;;5084926;28;20088;-80
2021/09/07 00:53:16;;;;;;;20.15;16.13;;;17.70;99.90;;;;;;5083972;28;20128;-79
2021/09/07 00:55:46;;;;;;;27.10;17.55;;;17.60;99.90;;;;;;5084699;28;20326;-81
2021/09/07 00:58:14;;;;;;;22.85;16.20;;;17.60;99.90;;;;;;5085909;28;20508;-80
2021/09/07 01:00:44;;;;;;;21.50;16.60;;;17.60;99.90;;;;;;5084800;28;20072;-80
2021/09/07 01:03:13;;;;;;;23.60;16.88;;;17.50;99.90;;;;;;5084249;28;20079;-79
2021/09/07 01:05:42;;;;;;;21.67;16.88;;;17.50;99.90;;;;;;5084808;28;20045;-80
2021/09/07 01:08:09;;;;;;;25.02;18.15;;;17.50;99.90;;;;;;5086155;28;20124;-81
2021/09/07 01:10:36;;;;;;;25.65;17.75;;;17.40;99.90;;;;;;5086039;28;20079;-80
2021/09/07 01:13:03;;;;;;;19.88;16.15;;;17.40;99.90;;;;;;5084478;28;20088;-80
2021/09/07 01:15:30;;;;;;;24.65;17.00;;;17.30;99.90;;;;;;5083855;28;20473;-80
2021/09/07 01:17:58;;;;;;;21.42;17.10;;;17.30;99.90;;;;;;5084827;28;20076;-80
2021/09/07 01:20:25;;;;;;;22.98;17.55;;;17.40;99.90;;;;;;5083472;28;20127;-80
2021/09/07 01:22:52;;;;;;;24.15;16.77;;;17.40;99.90;;;;;;5083413;28;20084;-80
2021/09/07 01:25:21;;;;;;;22.58;17.00;;;17.30;99.90;;;;;;5083679;28;20120;-80
2021/09/07 01:27:48;;;;;;;21.98;18.13;;;17.30;99.90;;;;;;5083886;28;20108;-79
2021/09/07 01:30:15;;;;;;;22.83;17.00;;;17.30;99.90;;;;;;5081376;28;20044;-77
2021/09/07 01:32:42;;;;;;;25.33;18.00;;;17.30;99.90;;;;;;5081106;28;20496;-78
2021/09/07 01:35:09;;;;;;;27.20;18.23;;;17.20;99.90;;;;;;5080729;28;20049;-78
2021/09/07 01:37:40;;;;;;;23.65;17.35;;;17.20;99.90;;;;;;5082663;28;20135;-80
2021/09/07 01:40:08;;;;;;;20.65;16.50;;;17.10;99.90;;;;;;5085385;28;20159;-79
2021/09/07 01:42:37;;;;;;;25.08;16.67;;;17.10;99.90;;;;;;5085765;28;20159;-79
2021/09/07 01:45:04;;;;;;;25.08;17.00;;;17.10;99.90;;;;;;5082028;28;20421;-79
2021/09/07 01:47:31;;;;;;;24.20;16.77;;;17.10;99.90;;;;;;5085366;28;20464;-80
2021/09/07 01:49:58;;;;;;;24.08;17.45;;;17.10;99.90;;;;;;5084623;28;20135;-80
2021/09/07 01:52:25;;;;;;;21.67;16.38;;;17.10;99.90;;;;;;5085364;28;20112;-80
2021/09/07 01:54:52;;;;;;;23.02;16.85;;;17.10;99.90;;;;;;5085378;28;20072;-80
2021/09/07 01:57:19;;;;;;;22.15;16.90;;;17.00;99.90;;;;;;5085203;28;20076;-80
2021/09/07 01:59:47;;;;;;;22.42;16.42;;;17.00;99.90;;;;;;5085954;28;20136;-80
2021/09/07 02:02:14;;;;;;;21.38;15.70;;;17.00;99.90;;;;;;5084525;28;20049;-80
2021/09/07 02:04:45;;;;;;;22.10;17.17;;;16.90;99.90;;;;;;5085210;28;20055;-79
2021/09/07 02:07:12;;;;;;;22.05;17.13;;;16.90;99.90;;;;;;5084668;28;20048;-79
2021/09/07 02:09:39;;;;;;;23.02;17.80;;;16.80;99.90;;;;;;5086217;28;20072;-79
2021/09/07 02:12:07;;;;;;;24.10;18.08;;;16.80;99.90;;;;;;5085137;28;20072;-79
2021/09/07 02:14:34;;;;;;;25.98;17.67;;;16.80;99.90;;;;;;5085104;28;20075;-79
2021/09/07 02:17:02;;;;;;;22.15;17.15;;;16.70;99.90;;;;;;5084891;28;20108;-79
2021/09/07 02:19:29;;;;;;;23.15;17.15;;;16.60;99.90;;;;;;5084498;28;20109;-78
2021/09/07 02:21:56;;;;;;;22.20;17.13;;;16.60;99.90;;;;;;5084570;28;20127;-79
2021/09/07 02:24:23;;;;;;;24.98;17.42;;;16.60;99.90;;;;;;5087149;28;20080;-79
2021/09/07 02:26:50;;;;;;;20.08;16.42;;;16.50;99.90;;;;;;5088029;28;20084;-79
2021/09/07 02:29:17;;;;;;;23.23;16.90;;;16.50;99.90;;;;;;5088377;28;20113;-80
2021/09/07 02:31:44;;;;;;;21.55;16.75;;;16.50;99.90;;;;;;5087659;28;20052;-80
2021/09/07 02:34:12;;;;;;;28.83;16.95;;;16.50;99.90;;;;;;5088064;28;20056;-80
2021/09/07 02:36:39;;;;;;;22.55;17.10;;;16.50;99.90;;;;;;5087455;28;20116;-80
2021/09/07 02:39:05;;;;;;;22.98;16.77;;;16.40;99.90;;;;;;5088503;28;20048;-80
2021/09/07 02:41:32;;;;;;;23.15;17.23;;;16.40;99.90;;;;;;5086808;28;20088;-80
2021/09/07 02:43:59;;;;;;;26.55;17.38;;;16.40;99.90;;;;;;5086969;28;20049;-80
2021/09/07 02:46:26;;;;;;;24.98;17.88;;;16.40;99.90;;;;;;5085217;28;20084;-80
2021/09/07 02:48:53;;;;;;;24.83;16.92;;;16.40;99.90;;;;;;5084133;28;20088;-79
2021/09/07 02:51:21;;;;;;;24.23;18.38;;;16.40;99.90;;;;;;5079491;28;20097;-79
2021/09/07 02:53:48;;;;;;;25.83;17.48;;;16.40;99.90;;;;;;5082873;28;20045;-79
2021/09/07 02:56:15;;;;;;;23.05;16.83;;;16.30;99.90;;;;;;5086056;28;20080;-79
2021/09/07 02:58:42;;;;;;;22.27;16.58;;;16.30;99.90;;;;;;5085648;28;20144;-79
2021/09/07 03:01:09;;;;;;;26.95;17.75;;;16.30;99.90;;;;;;5086855;28;20075;-80
2021/09/07 03:03:36;;;;;;;26.38;17.58;;;16.30;99.90;;;;;;5086491;28;20072;-79
2021/09/07 03:06:06;;;;;;;24.88;17.42;;;16.30;99.90;;;;;;5086996;28;20100;-79
2021/09/07 03:08:34;;;;;;;21.23;16.92;;;16.30;99.90;;;;;;5085123;28;20091;-79
2021/09/07 03:11:01;;;;;;;27.35;18.23;;;16.30;99.90;;;;;;5082626;28;20516;-80
2021/09/07 03:13:28;;;;;;;25.25;18.52;;;16.30;99.90;;;;;;5082992;28;20062;-80
2021/09/07 03:15:55;;;;;;;27.63;18.85;;;16.30;99.90;;;;;;5089002;28;20080;-80
2021/09/07 03:18:22;;;;;;;26.48;17.95;;;16.30;99.90;;;;;;5096619;28;20055;-78
2021/09/07 03:20:49;;;;;;;26.95;18.98;;;16.20;99.90;;;;;;5082919;28;20155;-79
2021/09/07 03:23:16;;;;;;;25.95;19.25;;;16.20;99.90;;;;;;5095670;28;20086;-79
2021/09/07 03:25:44;;;;;;;29.17;18.80;;;16.20;99.90;;;;;;5100013;28;20080;-79
2021/09/07 03:28:11;;;;;;;23.48;18.67;;;16.20;99.90;;;;;;5101126;28;20106;-79
2021/09/07 03:30:38;;;;;;;29.67;19.48;;;16.10;99.90;;;;;;5099502;28;20135;-79
2021/09/07 03:33:05;;;;;;;29.20;20.63;;;16.10;99.90;;;;;;5090243;28;20120;-79
2021/09/07 03:35:32;;;;;;;25.50;18.92;;;16.10;99.90;;;;;;5081171;28;20062;-80
2021/09/07 03:37:59;;;;;;;24.00;18.83;;;16.10;99.90;;;;;;5079722;28;20148;-80
2021/09/07 03:40:26;;;;;;;27.65;18.60;;;16.10;99.90;;;;;;5061272;28;20108;-80
2021/09/07 03:42:54;;;;;;;27.25;19.02;;;16.10;99.90;;;;;;5077140;28;20131;-79
2021/09/07 03:45:21;;;;;;;27.25;19.88;;;16.10;99.90;;;;;;5045100;28;20081;-79
2021/09/07 03:47:49;;;;;;;27.75;19.98;;;16.10;99.90;;;;;;5040082;28;20085;-79
2021/09/07 03:50:16;;;;;;;28.67;19.58;;;16.00;99.90;;;;;;5040090;28;20477;-79
2021/09/07 03:52:43;;;;;;;25.85;19.38;;;16.00;99.90;;;;;;5039173;28;20053;-80
2021/09/07 03:55:11;;;;;;;28.58;19.83;;;16.00;99.90;;;;;;5038770;28;20084;-80
2021/09/07 03:57:38;;;;;;;28.05;19.05;;;15.90;99.90;;;;;;5039674;28;20080;-79
2021/09/07 04:00:08;;;;;;;25.73;18.63;;;15.90;99.90;;;;;;5041841;28;20080;-80
2021/09/07 04:02:35;;;;;;;28.67;19.88;;;16.00;99.90;;;;;;5042989;28;20092;-80
2021/09/07 04:05:02;;;;;;;27.83;19.65;;;16.00;99.90;;;;;;5044228;28;20069;-80
2021/09/07 04:07:29;;;;;;;32.00;21.40;;;16.00;99.90;;;;;;5045279;28;20068;-80
2021/09/07 04:09:56;;;;;;;31.17;19.70;;;16.00;99.90;;;;;;5044501;28;20049;-80
2021/09/07 04:12:23;;;;;;;27.02;19.88;;;16.00;99.90;;;;;;5044805;28;20081;-80
2021/09/07 04:14:49;;;;;;;28.48;20.15;;;16.00;99.90;;;;;;5044305;28;20053;-80
2021/09/07 04:17:18;;;;;;;31.85;19.80;;;16.00;99.90;;;;;;5044488;28;20033;-81
2021/09/07 04:19:45;;;;;;;28.50;20.25;;;15.90;99.90;;;;;;5043841;28;20064;-79
2021/09/07 04:22:12;;;;;;;28.48;20.20;;;15.90;99.90;;;;;;5045745;28;20056;-80
2021/09/07 04:24:39;;;;;;;31.95;20.38;;;15.90;99.90;;;;;;5043173;28;20055;-80
2021/09/07 04:27:06;;;;;;;29.35;21.15;;;15.80;99.90;;;;;;5043428;28;20105;-80
2021/09/07 04:29:33;;;;;;;27.63;19.60;;;15.80;99.90;;;;;;5043357;28;20522;-78
2021/09/07 04:32:00;;;;;;;29.38;20.42;;;15.70;99.90;;;;;;5043395;28;20050;-80
2021/09/07 04:36:56;;;;;;;29.80;20.60;;;15.60;99.90;;;;;;5016562;28;20390;-78
2021/09/07 04:39:23;;;;;;;29.98;20.27;;;15.70;99.90;;;;;;5017882;28;20084;-79
2021/09/07 04:41:50;;;;;;;30.92;20.17;;;15.70;99.90;;;;;;5018155;28;20168;-79
2021/09/07 04:44:20;;;;;;;27.15;20.33;;;15.80;99.90;;;;;;5020705;28;20046;-80
2021/09/07 04:46:46;;;;;;;27.58;21.55;;;15.80;99.90;;;;;;5016492;28;20077;-79
2021/09/07 04:49:13;;;;;;;29.52;21.80;;;15.80;99.90;;;;;;5017352;28;20125;-79
2021/09/07 04:51:40;;;;;;;28.15;21.10;;;15.90;99.90;;;;;;5020428;28;20137;-79
2021/09/07 04:54:09;;;;;;;31.25;21.95;;;15.90;99.90;;;;;;5020636;28;20050;-79
2021/09/07 04:56:35;;;;;;;29.73;21.02;;;16.00;99.90;;;;;;5020570;28;20044;-80
2021/09/07 04:59:03;;;;;;;31.35;21.25;;;16.10;99.90;;;;;;5021494;28;20050;-80
2021/09/07 05:01:30;;;;;;;32.88;22.60;;;16.10;99.90;;;;;;5020474;28;20057;-80
2021/09/07 05:03:57;;;;;;;29.00;20.80;;;16.00;99.90;;;;;;5019123;28;20144;-81
2021/09/07 05:06:24;;;;;;;27.40;20.80;;;16.00;99.90;;;;;;5022997;28;20089;-80
2021/09/07 05:08:50;;;;;;;30.02;21.25;;;16.10;99.90;;;;;;5023284;28;20145;-81
2021/09/07 05:11:19;;;;;;;26.52;20.85;;;16.10;99.90;;;;;;5022945;28;20132;-80
2021/09/07 05:13:46;;;;;;;26.52;20.88;;;16.10;99.90;;;;;;5019339;28;20105;-80
2021/09/07 05:16:12;;;;;;;28.30;20.95;;;16.10;99.90;;;;;;5021994;28;20042;-80
2021/09/07 05:18:39;;;;;;;27.02;20.52;;;16.10;99.90;;;;;;5020526;28;20485;-80
2021/09/07 05:21:06;;;;;;;27.90;20.20;;;16.10;99.90;;;;;;5019076;28;20100;-79
2021/09/07 05:23:33;;;;;;;28.88;20.95;;;16.10;99.90;;;;;;5019812;28;20100;-78
2021/09/07 05:26:00;;;;;;;31.95;20.70;;;16.10;99.90;;;;;;5018629;28;20064;-80
2021/09/07 05:28:28;;;;;;;29.90;21.25;;;16.10;99.90;;;;;;5019644;28;20132;-80
2021/09/07 05:30:57;;;;;;;35.13;22.08;;;16.00;99.90;;;;;;5023725;28;20106;-80
2021/09/07 05:33:24;;;;;;;32.47;22.08;;;16.00;99.90;;;;;;5017497;28;20057;-79
2021/09/07 05:35:51;;;;;;;32.80;21.88;;;16.00;99.90;;;;;;5009120;28;20513;-80
2021/09/07 05:38:18;;;;;;;28.92;22.75;;;16.00;99.90;;;;;;5020612;28;20066;-80
2021/09/07 05:40:45;;;;;;;29.48;22.70;;;16.00;99.90;;;;;;5019511;28;20133;-80
2021/09/07 05:43:12;;;;;;;34.35;22.48;;;16.00;99.90;;;;;;5019759;28;20132;-80
2021/09/07 05:45:41;;;;;;;29.33;21.63;;;16.10;99.90;;;;;;5018644;28;20045;-79
2021/09/07 05:48:08;;;;;;;33.03;24.42;;;16.10;99.90;;;;;;5019927;28;20046;-78
2021/09/07 05:50:35;;;;;;;33.25;23.95;;;16.10;99.90;;;;;;5018955;28;20138;-79
2021/09/07 05:53:02;;;;;;;30.05;22.75;;;16.00;99.90;;;;;;5029595;28;20204;-79
2021/09/07 05:55:29;;;;;;;32.88;22.92;;;16.00;99.90;;;;;;5017385;28;20100;-79
2021/09/07 05:57:56;;;;;;;32.35;22.88;;;16.10;99.90;;;;;;5009663;28;20052;-78
2021/09/07 06:00:23;;;;;;;35.65;24.10;;;16.20;99.90;;;;;;5016654;28;20146;-79
2021/09/07 06:02:55;;;;;;;30.20;23.80;;;16.20;99.90;;;;;;5019406;28;20056;-79
2021/09/07 06:05:26;;;;;;;35.95;23.83;;;16.40;99.90;;;;;;5019996;28;20054;-79
2021/09/07 06:07:53;;;;;;;32.90;22.33;;;16.50;99.90;;;;;;5018851;28;20050;-79
2021/09/07 06:10:20;;;;;;;30.25;23.42;;;16.60;99.90;;;;;;5018427;28;20133;-79
2021/09/07 06:12:47;;;;;;;35.78;23.75;;;16.70;99.90;;;;;;5018740;28;20053;-79
2021/09/07 06:15:14;;;;;;;32.13;22.92;;;16.80;99.90;;;;;;5019384;28;20089;-79
2021/09/07 06:17:40;;;;;;;31.42;23.13;;;16.80;99.90;;;;;;5018574;28;20049;-79
2021/09/07 06:20:10;;;;;;;33.85;24.60;;;16.90;99.90;;;;;;5017954;28;20109;-78
2021/09/07 06:22:37;;;;;;;32.90;24.70;;;16.70;99.90;;;;;;5017697;28;20115;-79
2021/09/07 06:25:07;;;;;;;36.03;25.35;;;16.70;99.90;;;;;;5016362;28;20081;-79
2021/09/07 06:27:34;;;;;;;33.50;26.17;;;16.60;99.90;;;;;;5018967;28;20085;-80
2021/09/07 06:30:03;;;;;;;38.75;26.85;;;16.70;99.90;;;;;;5017824;28;20049;-81
2021/09/07 06:32:30;;;;;;;33.90;26.08;;;16.80;99.90;;;;;;5015063;28;20053;-78
2021/09/07 06:34:59;;;;;;;37.90;26.02;;;16.80;99.90;;;;;;5008891;28;20073;-79
2021/09/07 06:37:28;;;;;;;32.17;24.50;;;16.90;99.90;;;;;;5008079;28;20042;-79
2021/09/07 06:39:55;;;;;;;32.30;24.67;;;17.10;99.90;;;;;;5004181;28;20459;-78
2021/09/07 06:42:22;;;;;;;35.92;25.08;;;17.20;99.90;;;;;;5007404;28;20180;-79
2021/09/07 06:44:49;;;;;;;39.42;25.17;;;17.30;99.90;;;;;;5008553;28;20033;-79
2021/09/07 06:47:16;;;;;;;38.38;24.23;;;17.40;99.90;;;;;;5005133;28;20096;-78
2021/09/07 06:49:43;;;;;;;35.17;25.08;;;17.50;99.90;;;;;;5015472;28;20054;-77
2021/09/07 06:52:10;;;;;;;34.90;23.67;;;17.50;99.90;;;;;;5016119;28;20503;-79
2021/09/07 06:54:39;;;;;;;33.50;25.90;;;17.50;99.90;;;;;;5015408;28;20471;-77
2021/09/07 06:57:09;;;;;;;32.28;24.98;;;17.60;99.90;;;;;;5005960;28;20073;-77
2021/09/07 06:59:37;;;;;;;36.92;25.65;;;17.60;99.90;;;;;;5015267;28;20050;-77
2021/09/07 07:02:05;;;;;;;34.58;25.85;;;17.70;99.90;;;;;;5014861;28;20085;-78
2021/09/07 07:04:31;;;;;;;34.70;24.98;;;17.80;99.90;;;;;;5005215;28;20050;-78
2021/09/07 07:06:58;;;;;;;34.83;25.65;;;17.90;99.90;;;;;;4998955;28;20073;-79
2021/09/07 07:09:25;;;;;;;37.65;25.50;;;18.10;99.90;;;;;;5000412;28;20090;-79
2021/09/07 07:11:53;;;;;;;33.10;25.67;;;18.10;99.90;;;;;;5000388;28;20078;-80
2021/09/07 07:14:21;;;;;;;41.30;27.10;;;18.20;99.90;;;;;;5001768;28;20046;-80
2021/09/07 07:16:48;;;;;;;49.13;34.63;;;18.40;99.90;;;;;;5001820;28;20106;-81
2021/09/07 07:19:16;;;;;;;39.90;27.70;;;18.50;99.90;;;;;;4998671;28;20078;-80
2021/09/07 07:21:43;;;;;;;38.70;27.70;;;18.50;99.90;;;;;;5000051;28;20057;-80
2021/09/07 07:24:10;;;;;;;38.42;27.45;;;18.60;99.90;;;;;;5001187;28;20070;-80
2021/09/07 07:26:37;;;;;;;33.45;27.42;;;18.70;99.90;;;;;;5000947;28;20109;-80
2021/09/07 07:29:05;;;;;;;41.10;29.15;;;18.70;99.90;;;;;;4998064;28;20054;-80
2021/09/07 07:34:18;;;;;;;42.40;28.95;;;18.90;99.90;;;;;;4998502;28;20077;-80
2021/09/07 07:36:54;;;;;;;39.83;29.05;;;18.90;99.90;;;;;;5004092;28;20077;-80
2021/09/07 07:39:27;;;;;;;41.25;27.55;;;19.00;99.90;;;;;;5003569;28;20109;-81
2021/09/07 07:42:04;;;;;;;37.60;28.52;;;19.10;99.90;;;;;;4999371;28;20108;-79
2021/09/07 07:44:32;;;;;;;40.13;28.80;;;19.20;99.90;;;;;;5002841;28;20101;-80
2021/09/07 07:47:11;;;;;;;45.15;28.08;;;19.30;99.90;;;;;;5002985;28;20057;-80
2021/09/07 07:49:47;;;;;;;36.80;28.00;;;19.20;99.90;;;;;;5002416;28;20050;-79
2021/09/07 07:52:21;;;;;;;38.92;27.27;;;19.20;99.90;;;;;;5003159;28;20113;-80
2021/09/07 07:54:50;;;;;;;37.38;27.75;;;19.30;99.90;;;;;;5002641;28;20054;-80
2021/09/07 07:57:18;;;;;;;39.15;28.15;;;19.30;99.90;;;;;;5003921;28;20291;-80
2021/09/07 07:59:46;;;;;;;36.13;27.83;;;19.30;99.90;;;;;;5002403;28;20079;-78
2021/09/07 08:02:14;;;;;;;42.58;28.65;;;19.30;99.90;;;;;;4998938;28;20113;-80
2021/09/07 08:04:41;;;;;;;36.92;28.15;;;19.50;99.90;;;;;;5001737;28;20058;-80
2021/09/07 08:07:10;;;;;;;38.70;26.10;;;19.60;99.90;;;;;;5002004;28;20174;-80
2021/09/07 08:09:39;;;;;;;35.30;27.15;;;19.60;99.90;;;;;;5001125;28;20065;-77
2021/09/07 08:12:09;;;;;;;40.78;27.42;;;19.60;99.90;;;;;;4999252;28;20058;-80
2021/09/07 08:14:36;;;;;;;35.75;26.70;;;19.60;99.90;;;;;;4999694;28;20054;-80
2021/09/07 08:17:05;;;;;;;38.55;27.95;;;19.70;99.90;;;;;;5002423;28;20064;-78
2021/09/07 08:19:35;;;;;;;37.03;28.20;;;19.90;99.90;;;;;;5001549;28;20088;-78
2021/09/07 08:22:05;;;;;;;40.65;28.63;;;20.10;99.90;;;;;;4999784;28;20444;-81
2021/09/07 08:24:33;;;;;;;38.72;28.60;;;20.20;99.90;;;;;;4999836;28;20054;-79
2021/09/07 08:27:00;;;;;;;36.45;27.95;;;20.20;99.90;;;;;;4998734;28;20574;-77
2021/09/07 08:29:29;;;;;;;38.88;28.23;;;20.20;99.90;;;;;;4998331;28;20105;-79
2021/09/07 08:31:56;;;;;;;38.33;28.35;;;20.50;99.90;;;;;;4998284;28;20544;-81
2021/09/07 08:34:25;;;;;;;37.47;28.23;;;20.80;99.90;;;;;;5001091;28;20490;-79
2021/09/07 08:36:52;;;;;;;44.22;29.08;;;21.00;99.90;;;;;;5007900;28;20084;-80
2021/09/07 08:39:19;;;;;;;43.70;29.20;;;21.20;99.90;;;;;;5011738;28;20054;-81
2021/09/07 08:41:47;;;;;;;40.85;29.90;;;21.30;99.90;;;;;;5011003;28;20130;-81
2021/09/07 08:44:18;;;;;;;36.80;28.67;;;21.10;99.90;;;;;;5011196;28;20050;-81
2021/09/07 08:46:48;;;;;;;36.97;30.08;;;21.10;99.90;;;;;;5008129;28;20054;-79
2021/09/07 08:49:18;;;;;;;41.58;29.60;;;21.20;99.90;;;;;;5006525;28;20051;-80
2021/09/07 08:51:47;;;;;;;36.42;28.27;;;21.20;99.90;;;;;;5005804;28;20130;-79
2021/09/07 08:54:14;;;;;;;39.92;28.35;;;21.40;99.90;;;;;;5006670;28;20054;-79
2021/09/07 08:56:46;;;;;;;34.53;26.95;;;21.60;99.90;;;;;;5006905;28;20558;-81
2021/09/07 08:59:13;;;;;;;34.43;26.60;;;21.90;99.90;;;;;;5002784;28;20057;-80
2021/09/07 09:01:42;;;;;;;34.10;26.58;;;22.10;99.90;;;;;;4999833;28;20769;-80
2021/09/07 09:04:27;;;;;;;38.08;26.90;;;22.30;99.90;;;;;;4999782;28;20403;-79
2021/09/07 09:06:55;;;;;;;33.78;24.58;;;22.50;99.90;;;;;;4998755;28;20550;-79
2021/09/07 09:09:22;;;;;;;31.63;23.60;;;22.50;99.90;;;;;;4999026;28;20579;-79
2021/09/07 09:11:54;;;;;;;32.75;23.67;;;22.50;99.90;;;;;;5000479;28;20058;-80
2021/09/07 09:14:35;;;;;;;29.40;22.48;;;22.60;99.90;;;;;;5002444;28;20081;-80
2021/09/07 09:17:20;;;;;;;30.83;22.63;;;22.80;99.90;;;;;;5001420;28;20054;-80
2021/09/07 09:19:51;;;;;;;27.13;22.17;;;22.70;99.90;;;;;;4984219;28;20085;-80
2021/09/07 09:22:20;;;;;;;31.17;23.00;;;22.60;99.90;;;;;;5002965;28;20137;-79
2021/09/07 09:24:47;;;;;;;30.98;23.65;;;22.60;99.90;;;;;;5001799;28;20058;-80
2021/09/07 09:27:14;;;;;;;32.67;24.15;;;22.70;99.90;;;;;;5002160;28;20092;-77
2021/09/07 09:29:45;;;;;;;27.70;23.38;;;22.80;99.90;;;;;;4999372;28;20058;-79
2021/09/07 09:32:14;;;;;;;35.00;23.58;;;22.60;99.90;;;;;;5003878;28;20488;-80
2021/09/07 09:34:42;;;;;;;30.92;23.40;;;22.70;99.90;;;;;;5003600;28;20054;-79
2021/09/07 09:37:11;;;;;;;30.88;23.35;;;22.90;99.90;;;;;;5001486;28;20050;-78
2021/09/07 09:39:46;;;;;;;27.70;22.83;;;22.80;99.90;;;;;;5000434;28;20842;-78
2021/09/07 09:42:23;;;;;;;28.40;21.83;;;22.80;99.90;;;;;;4999079;28;20112;-78
2021/09/07 09:44:56;;;;;;;36.17;23.27;;;23.00;99.90;;;;;;4998725;28;20149;-79
2021/09/07 09:47:34;;;;;;;32.45;22.55;;;23.20;99.90;;;;;;5000814;28;20101;-79
2021/09/07 09:50:03;;;;;;;35.72;22.77;;;23.30;99.90;;;;;;4998889;28;20061;-79
2021/09/07 09:52:31;;;;;;;29.25;21.88;;;23.30;99.90;;;;;;5000102;28;20082;-77
2021/09/07 09:54:59;;;;;;;32.08;22.50;;;23.20;99.90;;;;;;5000552;28;20475;-79
2021/09/07 09:57:27;;;;;;;29.67;21.02;;;23.20;99.90;;;;;;5000996;28;20082;-79
2021/09/07 09:59:56;;;;;;;35.03;22.13;;;23.20;99.90;;;;;;5002616;28;20145;-79
2021/09/07 10:02:23;;;;;;;30.50;21.35;;;22.90;99.90;;;;;;4999708;28;20051;-77
2021/09/07 10:04:51;;;;;;;26.70;21.33;;;22.90;99.90;;;;;;4997971;28;20061;-78
2021/09/07 10:07:18;;;;;;;27.40;20.67;;;23.00;99.90;;;;;;4999263;28;20498;-79
2021/09/07 10:09:48;;;;;;;30.98;22.70;;;23.10;99.90;;;;;;4999422;28;20105;-79
2021/09/07 10:12:23;;;;;;;26.45;20.67;;;23.10;99.90;;;;;;5002096;28;20479;-80
2021/09/07 10:14:59;;;;;;;30.13;21.15;;;23.20;99.90;;;;;;5002501;28;20050;-80
2021/09/07 10:17:30;;;;;;;29.88;20.63;;;23.40;99.90;;;;;;5002412;28;20050;-80
2021/09/07 10:20:09;;;;;;;27.30;21.35;;;23.40;99.90;;;;;;5002955;28;20112;-79
2021/09/07 10:25:56;;;;;;;29.08;20.35;;;23.60;99.90;;;;;;5003234;28;20053;-80
2021/09/07 10:29:02;;;;;;;26.65;20.90;;;23.50;99.90;;;;;;5003000;28;20414;-79
2021/09/07 10:31:39;;;;;;;27.45;21.27;;;23.50;99.90;;;;;;4999212;28;20050;-80
2021/09/07 10:34:07;;;;;;;29.20;20.05;;;23.50;99.90;;;;;;5038311;22;20072;-77
2021/09/07 10:36:36;;;;;;;27.13;19.25;;;23.60;99.90;;;;;;5057070;28;20128;-78
2021/09/07 10:39:05;;;;;;;28.48;19.55;;;23.90;99.90;;;;;;5056666;28;20044;-76
2021/09/07 10:41:49;;;;;;;25.63;19.77;;;23.90;99.90;;;;;;5056283;28;20052;-77
2021/09/07 10:44:27;;;;;;;30.30;20.48;;;24.00;99.90;;;;;;5056756;28;20136;-77
2021/09/07 10:47:07;;;;;;;23.55;18.83;;;24.10;99.90;;;;;;5055628;28;20057;-77
2021/09/07 10:49:44;;;;;;;27.75;19.42;;;24.40;99.90;;;;;;5055855;28;20137;-75
2021/09/07 10:52:44;;;;;;;26.65;18.70;;;24.50;99.90;;;;;;5057247;28;20052;-77
2021/09/07 10:55:19;;;;;;;24.08;19.00;;;24.50;99.90;;;;;;5049291;28;20073;-76
2021/09/07 10:57:56;;;;;;;26.55;18.42;;;24.60;99.90;;;;;;5055983;28;20132;-76
2021/09/07 11:00:35;;;;;;;27.50;19.13;;;24.70;99.90;;;;;;5056539;28;20136;-77
2021/09/07 11:03:03;;;;;;;27.15;19.80;;;24.80;99.90;;;;;;5057128;28;20326;-78
2021/09/07 11:05:42;;;;;;;25.88;18.30;;;25.00;99.90;;;;;;5056686;28;20087;-77
2021/09/07 11:08:10;;;;;;;20.88;17.50;;;25.10;99.90;;;;;;5055160;28;20067;-78
2021/09/07 11:10:39;;;;;;;21.60;17.55;;;25.10;99.90;;;;;;5055364;28;20049;-78
2021/09/07 11:13:08;;;;;;;19.67;15.63;;;25.30;99.90;;;;;;5055466;28;20131;-77
2021/09/07 11:15:37;;;;;;;20.25;16.45;;;25.40;99.90;;;;;;5057557;28;20052;-78
2021/09/07 11:18:06;;;;;;;23.00;17.40;;;25.50;99.90;;;;;;5056526;28;20440;-77
2021/09/07 11:20:34;;;;;;;21.80;16.60;;;25.60;99.90;;;;;;5057152;28;20084;-78
2021/09/07 11:23:09;;;;;;;25.50;15.82;;;25.50;99.90;;;;;;5055777;28;20045;-77
2021/09/07 11:25:37;;;;;;;20.63;15.40;;;25.50;99.90;;;;;;5056338;28;20053;-79
2021/09/07 11:28:06;;;;;;;19.58;14.98;;;25.50;99.90;;;;;;5055404;28;20420;-77
2021/09/07 11:30:34;;;;;;;18.23;14.55;;;25.70;99.90;;;;;;5054632;28;20055;-77
2021/09/07 11:33:06;;;;;;;21.35;16.05;;;25.70;99.90;;;;;;5057137;28;20059;-77
2021/09/07 11:35:35;;;;;;;17.77;14.60;;;25.80;99.90;;;;;;5054815;28;20131;-77
2021/09/07 11:38:03;;;;;;;15.68;12.65;;;25.80;99.90;;;;;;5055150;28;20427;-77
2021/09/07 11:40:32;;;;;;;21.65;14.13;;;25.80;99.90;;;;;;5054469;28;20049;-78
2021/09/07 11:42:59;;;;;;;17.50;13.43;;;25.80;99.90;;;;;;5055436;28;20273;-76
2021/09/07 11:45:28;;;;;;;18.35;12.85;;;25.70;99.90;;;;;;5054662;28;20049;-77
2021/09/07 11:47:55;;;;;;;17.77;13.68;;;25.70;99.90;;;;;;5054068;28;20433;-76
2021/09/07 11:50:27;;;;;;;20.55;14.30;;;25.70;99.90;;;;;;5054471;28;20051;-77
2021/09/07 11:52:55;;;;;;;17.77;13.73;;;25.60;99.90;;;;;;5054545;28;20085;-77
2021/09/07 11:55:50;;;;;;;19.92;13.82;;;25.50;99.90;;;;;;5054332;28;20127;-78
2021/09/07 11:58:41;;;;;;;18.27;12.63;;;25.60;99.90;;;;;;5054570;28;20052;-77
2021/09/07 12:01:23;;;;;;;16.42;13.63;;;25.70;99.90;;;;;;5054904;28;20132;-78
2021/09/07 12:03:53;;;;;;;19.73;13.83;;;25.80;99.90;;;;;;5053989;28;20460;-77
2021/09/07 12:06:31;;;;;;;19.90;15.82;;;25.70;99.90;;;;;;5053823;28;20135;-77
2021/09/07 12:09:11;;;;;;;25.15;15.30;;;25.70;99.90;;;;;;5054746;28;20077;-79
2021/09/07 12:11:38;;;;;;;21.10;15.55;;;25.70;99.90;;;;;;5055023;28;20084;-80
2021/09/07 12:14:08;;;;;;;20.85;15.07;;;25.70;99.90;;;;;;5054334;28;20105;-77
2021/09/07 12:16:36;;;;;;;21.02;14.93;;;25.60;99.90;;;;;;5054274;28;20049;-77
2021/09/07 12:19:30;;;;;;;19.58;14.68;;;25.70;99.90;;;;;;5053503;28;20457;-77
2021/09/07 12:22:13;;;;;;;18.23;14.27;;;25.70;99.90;;;;;;5035484;28;20113;-76
2021/09/07 12:24:42;;;;;;;16.20;14.18;;;25.70;99.90;;;;;;5053269;28;20081;-76
2021/09/07 12:27:22;;;;;;;18.95;13.88;;;25.80;99.90;;;;;;5052967;28;20135;-77
2021/09/07 12:30:09;;;;;;;17.73;13.68;;;25.60;99.90;;;;;;5053291;28;20465;-77
2021/09/07 12:32:50;;;;;;;16.00;12.85;;;25.70;99.90;;;;;;5054050;28;20067;-77
2021/09/07 12:35:37;;;;;;;14.25;12.68;;;25.70;99.90;;;;;;5052763;28;20428;-77
2021/09/07 12:38:08;;;;;;;17.75;11.80;;;25.70;99.90;;;;;;5052927;28;20061;-76
2021/09/07 12:40:36;;;;;;;18.20;12.43;;;25.80;99.90;;;;;;5054190;28;20049;-77
2021/09/07 12:43:06;;;;;;;14.75;11.90;;;25.80;99.90;;;;;;5052962;28;20095;-76
2021/09/07 12:45:33;;;;;;;15.82;12.38;;;25.90;99.90;;;;;;5053483;28;20576;-78
2021/09/07 12:48:00;;;;;;;13.52;11.27;;;26.00;99.90;;;;;;5052985;28;20140;-77